createdAt,value
2018-04-26T00:01:16.073Z,8.60
2018-04-26T00:03:45.982Z,8.52
2018-04-26T00:06:15.928Z,7.73
2018-04-26T00:08:45.816Z,8.23
2018-04-26T00:11:15.784Z,8.07
2018-04-26T00:13:46.648Z,7.95
2018-04-26T00:16:16.554Z,9.55
2018-04-26T00:18:47.224Z,9.30
2018-04-26T00:21:17.206Z,8.67
2018-04-26T00:23:47.087Z,9.23
2018-04-26T00:26:17.319Z,9.07
2018-04-26T00:28:47.247Z,9.35
2018-04-26T00:31:17.909Z,8.20
2018-04-26T00:33:48.569Z,8.97
2018-04-26T00:36:18.444Z,9.73
2018-04-26T00:38:48.455Z,8.73
2018-04-26T00:41:18.337Z,9.10
2018-04-26T00:43:48.268Z,9.70
2018-04-26T00:46:18.978Z,9.60
2018-04-26T00:48:48.915Z,10.10
2018-04-26T00:51:25.275Z,11.70
2018-04-26T00:53:55.914Z,11.35
2018-04-26T00:56:26.613Z,11.73
2018-04-26T00:58:56.530Z,11.90
2018-04-26T01:01:26.468Z,10.80
2018-04-26T01:03:57.469Z,10.60
2018-04-26T01:06:27.475Z,10.40
2018-04-26T01:08:57.447Z,10.68
2018-04-26T01:11:28.120Z,12.43
2018-04-26T01:13:58.085Z,13.57
2018-04-26T01:16:28.767Z,11.33
2018-04-26T01:18:58.741Z,12.80
2018-04-26T01:21:29.423Z,11.67
2018-04-26T01:23:59.367Z,11.13
2018-04-26T01:26:29.241Z,12.03
2018-04-26T01:28:59.120Z,11.97
2018-04-26T01:31:30.387Z,11.70
2018-04-26T01:34:00.302Z,12.63
2018-04-26T01:36:41.407Z,11.77
2018-04-26T01:39:11.352Z,11.83
2018-04-26T01:41:41.247Z,12.13
2018-04-26T01:44:11.148Z,12.20
2018-04-26T01:46:41.083Z,12.60
2018-04-26T01:49:10.992Z,13.00
2018-04-26T01:51:40.843Z,12.83
2018-04-26T01:54:11.613Z,11.87
2018-04-26T01:56:41.580Z,13.30
2018-04-26T01:59:11.473Z,13.27
2018-04-26T02:01:41.353Z,15.07
2018-04-26T02:04:11.539Z,18.83
2018-04-26T02:06:42.219Z,19.50
2018-04-26T02:09:12.167Z,20.10
2018-04-26T02:11:42.089Z,23.27
2018-04-26T02:14:12.009Z,23.63
2018-04-26T02:16:42.732Z,26.73
2018-04-26T02:19:13.289Z,26.70
2018-04-26T02:21:44.556Z,33.80
2018-04-26T02:24:14.419Z,34.17
2018-04-26T02:26:45.015Z,30.90
2018-04-26T02:29:14.772Z,31.27
2018-04-26T02:31:45.966Z,30.97
2018-04-26T02:34:15.802Z,30.93
2018-04-26T02:36:45.621Z,31.85
2018-04-26T02:39:15.380Z,31.90
2018-04-26T02:41:45.217Z,30.37
2018-04-26T02:44:15.091Z,28.70
2018-04-26T02:46:45.566Z,31.30
2018-04-26T02:49:15.460Z,28.60
2018-04-26T02:51:45.308Z,28.02
2018-04-26T02:54:15.177Z,28.60
2018-04-26T02:56:45.040Z,26.30
2018-04-26T02:59:14.754Z,29.03
2018-04-26T03:01:44.654Z,27.17
2018-04-26T03:04:14.820Z,27.40
2018-04-26T03:06:44.719Z,26.87
2018-04-26T03:09:15.332Z,25.20
2018-04-26T03:11:45.195Z,27.67
2018-04-26T03:14:15.103Z,25.10
2018-04-26T03:16:45.690Z,25.33
2018-04-26T03:19:15.532Z,25.83
2018-04-26T03:21:46.190Z,24.17
2018-04-26T03:24:16.003Z,23.43
2018-04-26T03:26:45.811Z,24.37
2018-04-26T03:29:15.794Z,23.60
2018-04-26T03:31:46.367Z,23.40
2018-04-26T03:34:16.366Z,21.73
2018-04-26T03:36:46.165Z,23.05
2018-04-26T03:39:15.977Z,22.07
2018-04-26T03:41:45.798Z,21.90
2018-04-26T03:44:15.604Z,22.77
2018-04-26T03:46:46.334Z,22.95
2018-04-26T03:49:16.881Z,23.10
2018-04-26T03:51:46.671Z,23.65
2018-04-26T03:54:17.221Z,23.20
2018-04-26T03:56:47.072Z,22.60
2018-04-26T03:59:16.887Z,20.77
2018-04-26T04:01:58.040Z,22.77
2018-04-26T04:04:38.944Z,21.43
2018-04-26T04:07:09.018Z,20.13
2018-04-26T04:09:38.910Z,21.10
2018-04-26T04:12:09.520Z,20.93
2018-04-26T04:14:39.287Z,19.40
2018-04-26T04:17:09.027Z,21.60
2018-04-26T04:19:39.082Z,21.43
2018-04-26T04:22:08.942Z,22.03
2018-04-26T04:24:38.954Z,20.90
2018-04-26T04:27:09.027Z,21.93
2018-04-26T04:29:39.549Z,22.10
2018-04-26T04:32:10.061Z,20.30
2018-04-26T04:34:39.938Z,20.30
2018-04-26T04:37:09.837Z,19.17
2018-04-26T04:39:39.678Z,21.23
2018-04-26T04:42:09.382Z,19.60
2018-04-26T04:44:39.268Z,21.80
2018-04-26T04:47:09.028Z,20.43
2018-04-26T04:49:39.675Z,19.47
2018-04-26T04:52:10.380Z,20.70
2018-04-26T04:54:40.070Z,21.57
2018-04-26T04:57:10.862Z,23.17
2018-04-26T04:59:41.612Z,23.00
2018-04-26T05:02:11.449Z,22.20
2018-04-26T05:04:41.661Z,22.37
2018-04-26T05:07:11.432Z,24.37
2018-04-26T05:09:42.601Z,23.83
2018-04-26T05:12:12.623Z,24.70
2018-04-26T05:14:42.461Z,23.83
2018-04-26T05:17:12.433Z,25.37
2018-04-26T05:19:42.977Z,25.00
2018-04-26T05:22:12.902Z,26.07
2018-04-26T05:24:42.642Z,22.27
2018-04-26T05:27:12.589Z,20.73
2018-04-26T05:29:43.227Z,23.30
2018-04-26T05:32:13.918Z,20.70
2018-04-26T05:34:43.801Z,20.87
2018-04-26T05:37:15.043Z,21.77
2018-04-26T05:39:44.845Z,22.13
2018-04-26T05:42:14.772Z,25.87
2018-04-26T05:44:44.602Z,27.50
2018-04-26T05:47:14.467Z,28.67
2018-04-26T05:49:45.200Z,28.53
2018-04-26T05:52:17.433Z,24.30
2018-04-26T05:54:47.728Z,15.40
2018-04-26T05:57:17.648Z,14.97
2018-04-26T05:59:50.657Z,15.13
2018-04-26T06:02:21.787Z,15.00
2018-04-26T06:04:54.379Z,13.93
2018-04-26T06:07:25.062Z,13.60
2018-04-26T06:09:54.852Z,11.98
2018-04-26T06:12:25.486Z,11.90
2018-04-26T06:14:56.072Z,12.32
2018-04-26T06:17:25.896Z,13.10
2018-04-26T06:19:56.756Z,15.27
2018-04-26T06:22:29.589Z,13.63
2018-04-26T06:25:00.674Z,14.10
2018-04-26T06:27:30.697Z,15.00
2018-04-26T06:30:00.730Z,16.80
2018-04-26T06:32:31.353Z,15.30
2018-04-26T06:35:02.185Z,13.47
2018-04-26T06:37:32.317Z,14.30
2018-04-26T06:40:03.255Z,12.53
2018-04-26T06:42:33.283Z,12.30
2018-04-26T06:45:06.001Z,12.40
2018-04-26T06:47:37.254Z,11.77
2018-04-26T06:50:08.941Z,11.70
2018-04-26T06:52:41.065Z,13.60
2018-04-26T06:55:11.690Z,13.37
2018-04-26T06:57:43.617Z,12.73
2018-04-26T07:00:15.024Z,11.97
2018-04-26T07:02:45.496Z,11.03
2018-04-26T07:05:16.766Z,10.20
2018-04-26T07:07:47.440Z,10.07
2018-04-26T07:10:18.082Z,10.90
2018-04-26T07:12:48.552Z,9.43
2018-04-26T07:15:19.208Z,9.80
2018-04-26T07:17:49.799Z,10.05
2018-04-26T07:20:22.863Z,9.23
2018-04-26T07:22:54.990Z,10.00
2018-04-26T07:25:26.383Z,11.53
2018-04-26T07:27:56.827Z,12.35
2018-04-26T07:30:29.190Z,11.10
2018-04-26T07:32:59.715Z,11.00
2018-04-26T07:35:30.380Z,12.43
2018-04-26T07:38:01.482Z,12.93
2018-04-26T07:40:33.374Z,12.70
2018-04-26T07:43:05.840Z,13.30
2018-04-26T07:45:37.238Z,13.33
2018-04-26T07:48:08.887Z,13.48
2018-04-26T07:50:39.741Z,14.07
2018-04-26T07:53:11.434Z,14.77
2018-04-26T07:55:46.134Z,12.87
2018-04-26T07:58:19.663Z,13.43
2018-04-26T08:00:52.712Z,13.87
2018-04-26T08:03:23.924Z,13.65
2018-04-26T08:05:55.255Z,13.20
2018-04-26T08:08:25.793Z,13.37
2018-04-26T08:10:56.563Z,14.35
2018-04-26T08:13:27.957Z,13.87
2018-04-26T08:15:59.335Z,13.68
2018-04-26T08:18:31.233Z,14.17
2018-04-26T08:21:01.444Z,13.95
2018-04-26T08:23:31.300Z,14.77
2018-04-26T08:26:01.930Z,12.83
2018-04-26T08:28:32.827Z,13.17
2018-04-26T08:31:02.646Z,11.37
2018-04-26T08:33:32.514Z,12.13
2018-04-26T08:36:02.333Z,11.30
2018-04-26T08:38:33.053Z,11.73
2018-04-26T08:41:02.916Z,10.80
2018-04-26T08:43:32.695Z,10.80
2018-04-26T08:46:02.575Z,10.15
2018-04-26T08:48:33.173Z,10.20
2018-04-26T08:51:03.015Z,8.10
2018-04-26T08:53:33.579Z,7.67
2018-04-26T08:56:03.389Z,7.40
2018-04-26T08:58:33.244Z,7.37
2018-04-26T09:01:03.110Z,7.23
2018-04-26T09:03:32.914Z,6.70
2018-04-26T09:06:02.784Z,5.80
2018-04-26T09:08:32.545Z,5.80
2018-04-26T09:11:02.305Z,6.15
2018-04-26T09:13:32.720Z,5.33
2018-04-26T09:16:04.291Z,5.50
2018-04-26T09:18:36.820Z,5.87
2018-04-26T09:21:07.347Z,6.03
2018-04-26T09:23:39.225Z,5.30
2018-04-26T09:26:09.862Z,5.83
2018-04-26T09:28:40.508Z,4.80
2018-04-26T09:31:12.493Z,5.10
2018-04-26T09:33:44.820Z,6.10
2018-04-26T09:36:16.507Z,4.90
2018-04-26T09:38:47.413Z,5.28
2018-04-26T09:41:19.350Z,5.50
2018-04-26T09:43:50.014Z,5.80
2018-04-26T09:46:27.851Z,6.60
2018-04-26T09:49:03.790Z,6.87
2018-04-26T09:51:34.818Z,6.63
2018-04-26T09:54:05.963Z,8.57
2018-04-26T09:56:38.783Z,7.60
2018-04-26T09:59:11.084Z,7.10
2018-04-26T10:01:41.932Z,6.80
2018-04-26T10:04:19.449Z,6.30
2018-04-26T10:06:57.016Z,7.15
2018-04-26T10:09:31.938Z,6.37
2018-04-26T10:12:02.440Z,6.00
2018-04-26T10:14:33.829Z,6.80
2018-04-26T10:17:04.378Z,7.85
2018-04-26T10:19:35.971Z,7.70
2018-04-26T10:22:08.255Z,6.80
2018-04-26T10:24:41.685Z,7.43
2018-04-26T10:27:12.451Z,7.13
2018-04-26T10:29:43.983Z,8.70
2018-04-26T10:34:53.954Z,6.93
2018-04-26T10:37:24.588Z,5.70
2018-04-26T10:39:56.056Z,6.53
2018-04-26T10:42:26.540Z,6.33
2018-04-26T10:44:59.383Z,6.80
2018-04-26T10:47:31.210Z,7.20
2018-04-26T10:50:02.746Z,6.50
2018-04-26T10:52:33.550Z,6.90
2018-04-26T10:55:13.585Z,6.90
2018-04-26T10:57:45.680Z,6.40
2018-04-26T11:00:16.391Z,6.03
2018-04-26T11:02:48.624Z,6.10
2018-04-26T11:05:20.927Z,7.30
2018-04-26T11:07:52.559Z,7.60
2018-04-26T11:10:25.513Z,8.60
2018-04-26T11:12:58.257Z,10.43
2018-04-26T11:15:28.918Z,8.97
2018-04-26T11:18:00.453Z,9.13
2018-04-26T11:20:30.992Z,9.27
2018-04-26T11:23:06.153Z,10.00
2018-04-26T11:25:37.810Z,9.07
2018-04-26T11:28:08.481Z,9.90
2018-04-26T11:30:39.752Z,9.80
2018-04-26T11:33:10.895Z,9.50
2018-04-26T11:35:42.266Z,9.23
2018-04-26T11:38:13.337Z,9.82
2018-04-26T11:40:45.583Z,9.23
2018-04-26T11:43:20.473Z,10.10
2018-04-26T11:45:53.970Z,9.10
2018-04-26T11:48:24.686Z,8.93
2018-04-26T11:50:57.545Z,8.40
2018-04-26T11:53:30.765Z,9.27
2018-04-26T11:56:02.987Z,8.60
2018-04-26T11:58:33.532Z,9.17
2018-04-26T12:01:04.682Z,8.54
2018-04-26T12:03:34.511Z,7.63
2018-04-26T12:06:05.088Z,7.25
2018-04-26T12:08:34.912Z,7.63
2018-04-26T12:11:04.768Z,6.97
2018-04-26T12:13:35.351Z,5.93
2018-04-26T12:16:05.159Z,5.03
2018-04-26T12:18:34.968Z,4.77
2018-04-26T12:21:04.864Z,5.37
2018-04-26T12:23:34.674Z,5.30
2018-04-26T12:26:05.080Z,5.83
2018-04-26T12:28:35.651Z,6.40
2018-04-26T12:31:05.521Z,6.30
2018-04-26T12:33:36.300Z,5.53
2018-04-26T12:36:06.589Z,7.30
2018-04-26T12:38:36.429Z,5.67
2018-04-26T12:41:06.312Z,5.43
2018-04-26T12:43:37.248Z,6.20
2018-04-26T12:46:08.108Z,6.13
2018-04-26T12:48:37.922Z,4.90
2018-04-26T12:51:07.753Z,6.10
2018-04-26T12:53:37.618Z,5.87
2018-04-26T12:56:08.186Z,6.20
2018-04-26T12:58:38.059Z,6.00
2018-04-26T13:01:08.687Z,6.13
2018-04-26T13:03:39.799Z,6.23
2018-04-26T13:06:09.656Z,5.03
2018-04-26T13:08:39.697Z,6.10
2018-04-26T13:11:09.512Z,6.50
2018-04-26T13:13:39.330Z,5.77
2018-04-26T13:16:09.115Z,5.07
2018-04-26T13:18:38.948Z,5.63
2018-04-26T13:21:08.793Z,5.73
2018-04-26T13:23:38.642Z,6.20
2018-04-26T13:26:11.071Z,5.60
2018-04-26T13:28:41.976Z,5.20
2018-04-26T13:31:11.818Z,5.97
2018-04-26T13:33:41.646Z,6.10
2018-04-26T13:36:11.492Z,6.50
2018-04-26T13:38:42.090Z,5.53
2018-04-26T13:41:11.930Z,7.10
2018-04-26T13:43:42.537Z,6.20
2018-04-26T13:46:12.353Z,6.07
2018-04-26T13:48:42.204Z,6.50
2018-04-26T13:51:12.175Z,7.60
2018-04-26T13:53:41.962Z,6.90
2018-04-26T13:56:11.730Z,6.63
2018-04-26T13:58:42.319Z,6.60
2018-04-26T14:01:12.144Z,6.70
2018-04-26T14:03:41.942Z,6.20
2018-04-26T14:06:11.734Z,5.87
2018-04-26T14:08:41.519Z,5.93
2018-04-26T14:11:11.309Z,6.70
2018-04-26T14:13:41.878Z,7.20
2018-04-26T14:16:11.731Z,7.30
2018-04-26T14:18:43.167Z,7.10
2018-04-26T14:21:12.988Z,7.45
2018-04-26T14:23:42.766Z,7.83
2018-04-26T14:26:12.565Z,6.90
2018-04-26T14:28:43.166Z,7.00
2018-04-26T14:31:13.734Z,7.40
2018-04-26T14:33:43.505Z,6.47
2018-04-26T14:36:14.043Z,6.50
2018-04-26T14:38:45.500Z,7.13
2018-04-26T14:41:15.293Z,6.73
2018-04-26T14:43:45.374Z,17.37
2018-04-26T14:46:15.327Z,13.60
2018-04-26T14:48:50.507Z,10.97
2018-04-26T14:51:21.238Z,7.60
2018-04-26T14:53:51.501Z,6.72
2018-04-26T14:56:22.167Z,7.73
2018-04-26T14:58:52.739Z,8.93
2018-04-26T15:01:22.530Z,8.23
2018-04-26T15:03:53.299Z,6.95
2018-04-26T15:06:23.073Z,5.93
2018-04-26T15:08:52.945Z,5.87
2018-04-26T15:11:23.507Z,5.40
2018-04-26T15:13:53.244Z,6.53
2018-04-26T15:16:23.027Z,5.67
2018-04-26T15:18:52.797Z,4.90
2018-04-26T15:21:22.841Z,5.70
2018-04-26T15:23:53.560Z,5.93
2018-04-26T15:26:23.350Z,5.73
2018-04-26T15:28:53.347Z,5.70
2018-04-26T15:31:23.344Z,6.10
2018-04-26T15:33:53.466Z,6.37
2018-04-26T15:36:23.823Z,5.15
2018-04-26T15:38:53.739Z,5.50
2018-04-26T15:41:23.775Z,5.60
2018-04-26T15:43:53.892Z,5.20
2018-04-26T15:46:23.954Z,5.40
2018-04-26T15:48:54.877Z,4.77
2018-04-26T15:51:26.532Z,4.90
2018-04-26T15:54:08.332Z,5.00
2018-04-26T15:59:59.675Z,5.70
2018-04-26T16:02:58.981Z,4.65
2018-04-26T16:05:40.788Z,4.93
2018-04-26T16:08:26.854Z,6.07
2018-04-26T16:11:14.267Z,4.80
2018-04-26T16:14:02.220Z,5.73
2018-04-26T16:16:48.425Z,5.67
2018-04-26T16:19:50.499Z,4.73
2018-04-26T16:22:36.787Z,4.45
2018-04-26T16:25:17.549Z,4.60
2018-04-26T16:28:17.663Z,5.13
2018-04-26T16:31:13.496Z,6.27
2018-04-26T16:33:54.315Z,6.47
2018-04-26T16:36:35.133Z,6.07
2018-04-26T16:39:10.549Z,6.60
2018-04-26T16:41:40.423Z,6.57
2018-04-26T16:44:10.230Z,6.40
2018-04-26T16:46:40.274Z,5.90
2018-04-26T16:49:10.017Z,6.27
2018-04-26T16:51:41.158Z,7.23
2018-04-26T16:54:11.689Z,7.40
2018-04-26T16:56:42.221Z,7.07
2018-04-26T16:59:12.780Z,7.63
2018-04-26T17:01:42.592Z,7.67
2018-04-26T17:04:12.559Z,8.63
2018-04-26T17:06:42.386Z,6.90
2018-04-26T17:09:13.171Z,6.20
2018-04-26T17:11:43.893Z,6.65
2018-04-26T17:14:14.011Z,7.83
2018-04-26T17:16:43.803Z,7.60
2018-04-26T17:19:16.022Z,7.53
2018-04-26T17:21:47.924Z,7.23
2018-04-26T17:24:17.812Z,7.82
2018-04-26T17:26:48.648Z,7.17
2018-04-26T17:29:18.457Z,7.80
2018-04-26T17:31:48.213Z,6.17
2018-04-26T17:34:19.025Z,6.25
2018-04-26T17:36:50.271Z,7.10
2018-04-26T17:39:20.055Z,6.90
2018-04-26T17:41:49.836Z,7.07
2018-04-26T17:44:19.568Z,7.30
2018-04-26T17:46:50.309Z,8.70
2018-04-26T17:49:20.110Z,6.90
2018-04-26T17:51:49.975Z,8.17
2018-04-26T17:54:20.995Z,6.83
2018-04-26T17:56:51.604Z,7.60
2018-04-26T17:59:21.956Z,6.40
2018-04-26T18:01:52.471Z,6.93
2018-04-26T18:04:22.811Z,8.50
2018-04-26T18:06:53.382Z,6.07
2018-04-26T18:09:23.383Z,6.17
2018-04-26T18:11:53.704Z,6.30
2018-04-26T18:14:24.070Z,6.70
2018-04-26T18:16:53.828Z,6.73
2018-04-26T18:19:24.414Z,6.80
2018-04-26T18:21:54.622Z,7.07
2018-04-26T18:24:24.417Z,6.80
2018-04-26T18:26:54.214Z,7.53
2018-04-26T18:29:24.016Z,7.80
2018-04-26T18:31:53.962Z,8.40
2018-04-26T18:34:23.791Z,8.57
2018-04-26T18:36:53.588Z,8.27
2018-04-26T18:39:23.372Z,7.57
2018-04-26T18:41:53.186Z,8.47
2018-04-26T18:44:23.598Z,9.30
2018-04-26T18:46:54.262Z,7.82
2018-04-26T18:49:24.004Z,9.53
2018-04-26T18:51:53.786Z,8.30
2018-04-26T18:54:23.636Z,8.97
2018-04-26T18:56:53.522Z,8.60
2018-04-26T18:59:23.307Z,8.33
2018-04-26T19:01:53.111Z,7.47
2018-04-26T19:04:22.916Z,8.55
2018-04-26T19:06:53.465Z,7.90
2018-04-26T19:09:24.045Z,9.30
2018-04-26T19:11:54.140Z,8.48
2018-04-26T19:14:23.957Z,8.80
2018-04-26T19:16:53.721Z,9.27
2018-04-26T19:19:23.597Z,9.27
2018-04-26T19:21:53.374Z,8.53
2018-04-26T19:24:23.218Z,9.57
2018-04-26T19:26:53.092Z,8.93
2018-04-26T19:29:23.827Z,9.60
2018-04-26T19:31:53.597Z,9.48
2018-04-26T19:34:23.503Z,10.05
2018-04-26T19:36:54.396Z,10.02
2018-04-26T19:39:24.157Z,9.70
2018-04-26T19:41:54.720Z,8.93
2018-04-26T19:44:24.489Z,9.27
2018-04-26T19:46:55.079Z,10.05
2018-04-26T19:49:24.873Z,10.07
2018-04-26T19:51:54.659Z,9.53
2018-04-26T19:54:24.524Z,9.68
2018-04-26T19:56:55.385Z,9.15
2018-04-26T19:59:25.213Z,10.00
2018-04-26T20:01:55.791Z,9.07
2018-04-26T20:04:25.587Z,10.20
2018-04-26T20:06:55.343Z,11.00
2018-04-26T20:09:30.370Z,10.07
2018-04-26T20:12:00.149Z,10.90
2018-04-26T20:14:30.366Z,11.10
2018-04-26T20:17:00.185Z,11.12
2018-04-26T20:19:29.980Z,10.60
2018-04-26T20:21:59.785Z,10.60
2018-04-26T20:24:30.338Z,10.50
2018-04-26T20:27:00.327Z,10.25
2018-04-26T20:29:30.833Z,9.80
2018-04-26T20:32:00.632Z,10.37
2018-04-26T20:34:30.633Z,10.37
2018-04-26T20:37:00.406Z,10.18
2018-04-26T20:39:31.417Z,10.43
2018-04-26T20:42:01.224Z,9.20
2018-04-26T20:44:41.954Z,9.90
2018-04-26T20:47:11.754Z,10.25
2018-04-26T20:49:41.558Z,10.43
2018-04-26T20:52:11.341Z,9.37
2018-04-26T20:54:41.882Z,9.37
2018-04-26T20:57:12.488Z,9.60
2018-04-26T20:59:42.362Z,10.10
2018-04-26T21:02:12.161Z,9.40
2018-04-26T21:04:41.954Z,9.47
2018-04-26T21:07:11.754Z,8.83
2018-04-26T21:09:44.130Z,8.60
2018-04-26T21:12:14.735Z,8.70
2018-04-26T21:14:44.516Z,9.97
2018-04-26T21:17:14.284Z,8.53
2018-04-26T21:19:44.919Z,9.20
2018-04-26T21:22:15.444Z,10.30
2018-04-26T21:24:45.346Z,9.67
2018-04-26T21:27:15.862Z,9.67
2018-04-26T21:29:45.612Z,9.03
2018-04-26T21:32:15.403Z,9.80
2018-04-26T21:34:46.333Z,10.20
2018-04-26T21:37:16.863Z,8.90
2018-04-26T21:39:49.345Z,10.00
2018-04-26T21:42:20.207Z,8.27
2018-04-26T21:44:49.995Z,10.17
2018-04-26T21:47:20.524Z,9.97
2018-04-26T21:49:56.238Z,8.67
2018-04-26T21:52:31.136Z,10.00
2018-04-26T21:55:06.041Z,8.52
2018-04-26T21:57:41.673Z,10.30
2018-04-26T22:00:17.387Z,9.70
2018-04-26T22:02:47.347Z,9.10
2018-04-26T22:05:19.940Z,8.90
2018-04-26T22:07:50.571Z,9.53
2018-04-26T22:10:20.478Z,9.87
2018-04-26T22:12:51.295Z,9.27
2018-04-26T22:15:21.097Z,8.50
2018-04-26T22:17:50.920Z,8.90
2018-04-26T22:22:56.267Z,8.65
2018-04-26T22:25:26.042Z,9.95
2018-04-26T22:27:55.862Z,8.80
2018-04-26T22:30:26.482Z,8.50
2018-04-26T22:32:56.286Z,9.15
2018-04-26T22:35:26.855Z,8.80
2018-04-26T22:37:56.669Z,8.10
2018-04-26T22:40:26.761Z,8.20
2018-04-26T22:42:56.635Z,8.10
2018-04-26T22:45:27.193Z,8.13
2018-04-26T22:47:56.956Z,7.43
2018-04-26T22:50:26.753Z,8.07
2018-04-26T22:52:56.544Z,7.95
2018-04-26T22:55:26.503Z,8.60
2018-04-26T22:57:57.039Z,8.63
2018-04-26T23:00:28.643Z,7.70
2018-04-26T23:02:58.432Z,8.63
2018-04-26T23:05:28.210Z,8.40
2018-04-26T23:07:58.766Z,8.68
2018-04-26T23:10:28.595Z,8.63
2018-04-26T23:12:58.485Z,8.00
2018-04-26T23:15:28.302Z,8.73
2018-04-26T23:17:58.103Z,8.38
2018-04-26T23:20:28.659Z,8.40
2018-04-26T23:22:58.460Z,8.38
2018-04-26T23:25:28.215Z,8.53
2018-04-26T23:27:58.025Z,7.70
2018-04-26T23:30:27.797Z,8.03
2018-04-26T23:32:57.532Z,8.35
2018-04-26T23:35:27.342Z,7.60
2018-04-26T23:37:57.179Z,8.57
2018-04-26T23:40:26.938Z,8.47
2018-04-26T23:42:56.734Z,8.18
2018-04-26T23:45:27.356Z,7.97
2018-04-26T23:47:57.921Z,7.80
2018-04-26T23:50:27.735Z,8.53
2018-04-26T23:52:57.491Z,7.50
2018-04-26T23:55:27.263Z,7.00
2018-04-26T23:57:57.028Z,6.43
